Accueil
METAR-TAF:

METAR-TAF

Aéroports :

Stuttgart Municipal Airport

Stuttgart, Arkansas, États-Unis

latitude: 34-36N, longitude: 091-34W, altitude: 68 m

Observation

Le bulletin a été fait il y a 1 heure et 7 minutes, à 14:56 UTC
Vent 4 kt de ouest
Température 3°C
Humidité 75%
Pression 1026 hPa
Visibilité: 16.1 km
Nuages fragmentés à une hauteur de 7500 ft
Ciel couvert à une hauteur de 9500 ft

METAR: KSGT 141456Z AUTO 27004KT 10SM BKN075 OVC095 03/M01 A3030 RMK AO2 SLP264 T00331011 52017

Heure: 10:03 (16:03 UTC)


TAF: absent

Observations et prévisions météorologiques de plus de 4000 aéroports (messages METAR et TAF).

Les stations disponibles sont représentées par des disques jaunes et rouges sur la carte.

Passer la souris dessus pour voir le nom de la station.

Cliquer dessus pour voir les observations et prévisions météorologiques.

Pour changer de carte: cliquez sur les boutons verts avec une croix noire pour zoomer, sur le bouton vert avec un tiret pour effectuer un zoom arrière, ou sur les flèches vertes pour les cartes adjacentes.


METAR-TAF: